Time;durP1;ratioP1;P1;durP2;ratioP2;P2;SDS_P1;SDS_P2;PMS_P1;PMS_P2;Temp;Humidity;BMP_temperature;BMP_pressure;BME280_temperature;BME280_humidity;BME280_pressure;Samples;Min_cycle;Max_cycle;Signal;HPM_P1;HPM_P2
2022/10/02 00:02:01;;;;;;;36.83;7.77;;;14.80;99.90;;;;;;5075741;28;20206;-72
2022/10/02 00:04:38;;;;;;;21.90;6.77;;;14.80;99.90;;;;;;5075713;28;20175;-69
2022/10/02 00:07:09;;;;;;;39.37;9.07;;;14.80;99.90;;;;;;5076134;28;20187;-72
2022/10/02 00:09:46;;;;;;;30.60;6.03;;;14.90;99.90;;;;;;5077670;28;20602;-75
2022/10/02 00:12:18;;;;;;;31.63;6.10;;;14.80;99.90;;;;;;5081812;28;20179;-70
2022/10/02 00:14:46;;;;;;;21.97;6.20;;;14.70;99.90;;;;;;5081250;28;20241;-71
2022/10/02 00:17:21;;;;;;;23.70;7.07;;;14.70;99.90;;;;;;5085142;28;20181;-69
2022/10/02 00:19:52;;;;;;;32.83;7.67;;;14.80;99.90;;;;;;5081536;28;20174;-71
2022/10/02 00:22:31;;;;;;;32.97;8.60;;;14.80;99.90;;;;;;5075605;28;20232;-72
2022/10/02 00:25:09;;;;;;;25.40;5.80;;;14.90;99.90;;;;;;5075175;28;20187;-74
2022/10/02 00:28:05;;;;;;;32.17;7.70;;;14.80;99.90;;;;;;5078862;28;20462;-71
2022/10/02 00:30:44;;;;;;;36.40;9.23;;;14.70;99.90;;;;;;5082165;28;20254;-71
2022/10/02 00:33:49;;;;;;;22.67;6.63;;;14.70;99.90;;;;;;5083174;28;20166;-70
2022/10/02 00:36:47;;;;;;;24.77;6.30;;;14.70;99.90;;;;;;5083803;28;20187;-71
2022/10/02 00:39:33;;;;;;;24.97;5.93;;;14.70;99.90;;;;;;5075285;28;20225;-73
2022/10/02 00:42:16;;;;;;;18.20;4.83;;;14.60;99.90;;;;;;5076175;28;20249;-73
2022/10/02 00:44:51;;;;;;;22.57;6.07;;;14.70;99.90;;;;;;5077018;28;20193;-72
2022/10/02 00:47:20;;;;;;;29.77;8.17;;;14.70;99.90;;;;;;5082084;28;20201;-73
2022/10/02 00:50:34;;;;;;;28.53;6.60;;;14.70;99.90;;;;;;5080158;28;20639;-75
2022/10/02 00:53:21;;;;;;;26.30;7.07;;;14.80;99.90;;;;;;5075172;28;20176;-71
2022/10/02 00:56:08;;;;;;;40.23;7.87;;;14.90;99.90;;;;;;5075054;28;20308;-70
2022/10/02 00:58:52;;;;;;;20.07;5.07;;;14.80;99.90;;;;;;5078288;28;20583;-72
2022/10/02 01:01:24;;;;;;;25.97;5.77;;;14.70;99.90;;;;;;5075063;28;20461;-74
2022/10/02 01:03:55;;;;;;;30.47;7.83;;;14.70;99.90;;;;;;5080217;28;20211;-69
2022/10/02 01:06:27;;;;;;;27.60;5.73;;;14.70;99.90;;;;;;5080580;28;20223;-72
2022/10/02 01:08:53;;;;;;;34.37;7.47;;;14.80;99.90;;;;;;5074219;28;20190;-71
2022/10/02 01:11:21;;;;;;;25.43;6.37;;;14.80;99.90;;;;;;5076220;28;20279;-75
2022/10/02 01:13:47;;;;;;;35.67;6.70;;;14.70;99.90;;;;;;5082423;28;20197;-78
2022/10/02 01:16:14;;;;;;;36.27;7.10;;;14.70;99.90;;;;;;5075086;28;20187;-75
2022/10/02 01:18:41;;;;;;;26.67;6.13;;;14.30;99.90;;;;;;5075441;28;20175;-74
2022/10/02 01:21:13;;;;;;;29.13;8.37;;;14.00;99.90;;;;;;5085696;28;20182;-70
2022/10/02 01:23:54;;;;;;;33.20;7.80;;;13.50;99.90;;;;;;5084752;28;20179;-71
2022/10/02 01:26:20;;;;;;;29.07;6.70;;;13.40;99.90;;;;;;5078441;28;20239;-71
2022/10/02 01:28:46;;;;;;;28.20;7.03;;;13.00;99.90;;;;;;5074903;28;20183;-73
2022/10/02 01:31:14;;;;;;;16.77;6.17;;;12.60;99.90;;;;;;5074467;28;20184;-71
2022/10/02 01:33:42;;;;;;;31.63;6.80;;;12.00;99.90;;;;;;5074878;28;20237;-73
2022/10/02 01:36:13;;;;;;;29.50;5.63;;;14.60;99.90;;;;;;5080513;28;20483;-70
2022/10/02 01:38:41;;;;;;;24.93;6.57;;;14.70;99.90;;;;;;5081700;28;20186;-71
2022/10/02 01:41:10;;;;;;;18.90;6.77;;;14.60;99.90;;;;;;5076429;28;20555;-70
2022/10/02 01:43:41;;;;;;;25.80;7.20;;;14.60;99.90;;;;;;5083336;28;20190;-70
2022/10/02 01:46:25;;;;;;;26.70;6.43;;;14.50;99.90;;;;;;5074522;28;20236;-70
2022/10/02 01:49:23;;;;;;;22.13;6.73;;;14.50;99.90;;;;;;5082478;28;20206;-71
2022/10/02 01:52:09;;;;;;;26.80;6.77;;;14.50;99.90;;;;;;5078127;28;20201;-72
2022/10/02 01:54:46;;;;;;;24.47;6.20;;;14.50;99.90;;;;;;5078038;28;20175;-73
2022/10/02 01:57:44;;;;;;;21.97;5.33;;;14.50;99.90;;;;;;5078241;28;20179;-74
2022/10/02 02:00:16;;;;;;;33.53;6.80;;;14.40;99.90;;;;;;5082850;28;20535;-69
2022/10/02 02:03:22;;;;;;;30.00;5.97;;;14.40;99.90;;;;;;5080625;28;20532;-72
2022/10/02 02:06:08;;;;;;;17.63;4.80;;;14.40;99.90;;;;;;5050536;28;20260;-72
2022/10/02 02:08:44;;;;;;;31.33;7.00;;;14.40;99.90;;;;;;5061943;28;20187;-73
2022/10/02 02:11:12;;;;;;;28.93;7.40;;;14.40;99.90;;;;;;5071709;28;20195;-78
2022/10/02 02:13:50;;;;;;;19.40;5.10;;;14.50;99.90;;;;;;5077611;28;20591;-74
2022/10/02 02:16:16;;;;;;;27.13;7.43;;;14.40;99.90;;;;;;5080859;28;20186;-75
2022/10/02 02:18:58;;;;;;;29.77;5.93;;;14.30;99.90;;;;;;5087149;28;20185;-75
2022/10/02 02:21:29;;;;;;;19.60;5.77;;;14.30;99.90;;;;;;5082797;28;20183;-73
2022/10/02 02:23:58;;;;;;;19.20;5.67;;;14.30;99.90;;;;;;5084928;28;20587;-74
2022/10/02 02:26:26;;;;;;;22.47;6.30;;;14.30;99.90;;;;;;5087657;28;20210;-73
2022/10/02 02:28:56;;;;;;;15.10;5.73;;;14.20;99.90;;;;;;5077481;28;20175;-73
2022/10/02 02:31:27;;;;;;;20.97;5.17;;;14.10;99.90;;;;;;5087097;28;20186;-71
2022/10/02 02:34:07;;;;;;;24.93;5.20;;;14.00;99.90;;;;;;5077573;28;20174;-71
2022/10/02 02:36:37;;;;;;;23.60;6.23;;;14.10;99.90;;;;;;5083119;28;20190;-74
2022/10/02 02:39:09;;;;;;;30.70;7.17;;;14.10;99.90;;;;;;5082576;28;20176;-71
2022/10/02 02:41:43;;;;;;;19.33;5.83;;;14.00;99.90;;;;;;5084668;28;20186;-72
2022/10/02 02:44:19;;;;;;;23.13;6.50;;;14.00;99.90;;;;;;5077239;28;20462;-73
2022/10/02 02:47:03;;;;;;;15.23;5.63;;;13.90;99.90;;;;;;5077168;28;20590;-75
2022/10/02 02:49:36;;;;;;;24.67;6.10;;;13.90;99.90;;;;;;5080600;28;20278;-76
2022/10/02 02:52:06;;;;;;;24.50;6.27;;;13.80;99.90;;;;;;5082102;28;20234;-71
2022/10/02 02:54:41;;;;;;;24.80;5.27;;;13.70;99.90;;;;;;5085439;28;20286;-72
2022/10/02 02:57:09;;;;;;;24.17;5.67;;;13.60;99.90;;;;;;5077206;28;20447;-72
2022/10/02 02:59:38;;;;;;;17.37;6.27;;;13.50;99.90;;;;;;5076561;28;20524;-74
2022/10/02 03:02:03;;;;;;;27.43;5.83;;;13.50;99.90;;;;;;5080623;28;20194;-76
2022/10/02 03:04:29;;;;;;;17.77;5.60;;;13.60;99.90;;;;;;5079969;28;20266;-73
2022/10/02 03:07:02;;;;;;;20.13;7.03;;;13.60;99.90;;;;;;5076596;28;20186;-70
2022/10/02 03:09:31;;;;;;;24.53;6.83;;;13.50;99.90;;;;;;5080963;28;20566;-73
2022/10/02 03:12:33;;;;;;;30.70;7.40;;;13.40;99.90;;;;;;5081379;28;21643;-74
2022/10/02 03:15:12;;;;;;;20.87;5.40;;;13.40;99.90;;;;;;5076602;28;20625;-73
2022/10/02 03:18:02;;;;;;;27.60;6.53;;;13.10;99.90;;;;;;5083762;28;20206;-73
2022/10/02 03:21:00;;;;;;;14.90;5.10;;;12.80;99.90;;;;;;5076492;28;20191;-75
2022/10/02 03:24:17;;;;;;;17.67;5.63;;;12.90;99.90;;;;;;5072523;28;20265;-76
2022/10/02 03:27:04;;;;;;;12.50;3.10;;;13.10;99.90;;;;;;5052963;28;20225;-71
2022/10/02 03:29:43;;;;;;;11.27;3.53;;;13.00;99.90;;;;;;5076298;28;20182;-78
2022/10/02 03:32:12;;;;;;;9.70;3.00;;;-6.50;99.90;;;;;;5080093;28;20183;-69
2022/10/02 03:34:39;;;;;;;16.00;3.67;;;-8.20;99.90;;;;;;5081763;28;20485;-74
2022/10/02 03:37:05;;;;;;;8.93;2.90;;;-8.10;99.90;;;;;;5075563;28;20275;-72
2022/10/02 03:39:31;;;;;;;16.87;3.00;;;14.10;99.90;;;;;;5076385;28;20183;-72
2022/10/02 03:41:57;;;;;;;12.13;2.77;;;14.00;99.90;;;;;;5076244;28;20194;-77
2022/10/02 03:44:23;;;;;;;20.57;4.07;;;14.00;99.90;;;;;;5076027;28;20274;-73
2022/10/02 03:46:49;;;;;;;11.20;3.47;;;13.90;99.90;;;;;;5075952;28;20344;-78
2022/10/02 03:49:14;;;;;;;19.90;4.87;;;14.00;99.90;;;;;;5076032;28;20182;-71
2022/10/02 03:51:40;;;;;;;7.57;2.70;;;14.00;99.90;;;;;;5080274;28;20182;-73
2022/10/02 03:54:17;;;;;;;10.43;4.43;;;13.90;99.90;;;;;;5083488;28;20189;-71
2022/10/02 03:56:55;;;;;;;6.80;3.23;;;13.90;99.90;;;;;;5079764;28;20204;-75
2022/10/02 03:59:30;;;;;;;10.70;3.37;;;13.90;99.90;;;;;;5082644;28;20190;-73
2022/10/02 04:01:58;;;;;;;7.70;2.90;;;13.90;99.90;;;;;;5079281;28;20616;-73
2022/10/02 04:04:30;;;;;;;10.77;3.87;;;13.90;99.90;;;;;;5076070;28;20190;-71
2022/10/02 04:06:57;;;;;;;7.43;4.13;;;13.90;99.90;;;;;;5081997;28;20209;-73
2022/10/02 04:09:41;;;;;;;24.60;5.80;;;13.90;99.90;;;;;;5079701;28;20480;-76
2022/10/02 04:12:18;;;;;;;10.93;3.70;;;13.90;99.90;;;;;;5083095;28;20641;-73
2022/10/02 04:15:15;;;;;;;14.17;3.77;;;13.90;99.90;;;;;;5085096;28;20251;-77
2022/10/02 04:17:52;;;;;;;16.43;5.10;;;14.00;99.90;;;;;;5081651;28;20453;-72
2022/10/02 04:20:25;;;;;;;11.47;4.30;;;13.90;99.90;;;;;;5074410;28;20577;-73
2022/10/02 04:23:01;;;;;;;15.77;4.80;;;13.90;99.90;;;;;;5081404;28;20186;-75
2022/10/02 04:25:35;;;;;;;16.83;4.13;;;13.90;99.90;;;;;;5075241;28;20528;-74
2022/10/02 04:28:09;;;;;;;14.77;4.43;;;14.00;99.90;;;;;;5081427;28;20257;-72
2022/10/02 04:30:34;;;;;;;19.07;4.57;;;13.90;99.90;;;;;;5078661;28;20261;-72
2022/10/02 04:33:32;;;;;;;24.33;6.23;;;14.00;99.90;;;;;;5076776;28;20317;-74
2022/10/02 04:36:17;;;;;;;24.97;5.97;;;13.90;99.90;;;;;;5062015;28;20406;-75
2022/10/02 04:39:04;;;;;;;12.93;3.73;;;13.90;99.90;;;;;;5079366;28;20188;-77
2022/10/02 04:41:57;;;;;;;12.03;4.60;;;13.90;99.90;;;;;;5075184;28;20247;-77
2022/10/02 04:44:35;;;;;;;15.73;2.93;;;13.80;99.90;;;;;;5080256;28;20221;-73
2022/10/02 04:47:19;;;;;;;19.53;3.87;;;13.80;99.90;;;;;;5075328;28;20178;-74
2022/10/02 04:49:59;;;;;;;20.63;5.13;;;13.80;99.90;;;;;;5074955;28;20178;-76
2022/10/02 04:52:52;;;;;;;16.50;4.33;;;13.80;99.90;;;;;;5077679;28;20186;-73
2022/10/02 04:55:30;;;;;;;16.00;4.33;;;13.80;99.90;;;;;;5081051;28;20238;-75
2022/10/02 04:58:06;;;;;;;15.60;4.10;;;13.90;99.90;;;;;;5074349;28;20194;-71
2022/10/02 05:00:46;;;;;;;17.77;4.43;;;13.90;99.90;;;;;;5078644;28;20195;-70
2022/10/02 05:03:49;;;;;;;17.00;4.53;;;13.80;99.90;;;;;;5084553;28;20182;-73
2022/10/02 05:06:59;;;;;;;13.23;3.93;;;13.80;99.90;;;;;;5079574;28;20222;-77
2022/10/02 05:09:46;;;;;;;12.00;4.80;;;13.70;99.90;;;;;;5079616;28;20179;-72
2022/10/02 05:12:48;;;;;;;11.80;3.60;;;13.70;99.90;;;;;;5085637;28;20178;-73
2022/10/02 05:15:27;;;;;;;11.77;4.03;;;13.60;99.90;;;;;;5073750;28;21084;-74
2022/10/02 05:18:37;;;;;;;17.20;3.90;;;13.50;99.90;;;;;;5073601;28;20186;-72
2022/10/02 05:21:46;;;;;;;10.53;3.63;;;13.50;99.90;;;;;;5087317;28;20182;-71
2022/10/02 05:24:47;;;;;;;15.27;4.00;;;13.40;99.90;;;;;;5080454;28;20281;-73
2022/10/02 05:27:25;;;;;;;17.80;4.37;;;13.50;99.90;;;;;;5078612;28;20185;-72
2022/10/02 05:30:25;;;;;;;18.20;4.07;;;13.50;99.90;;;;;;5078646;28;20175;-73
2022/10/02 05:33:00;;;;;;;8.93;2.87;;;13.50;99.90;;;;;;5081442;28;20502;-73
2022/10/02 05:35:47;;;;;;;10.83;3.97;;;13.50;99.90;;;;;;5078616;28;20183;-75
2022/10/02 05:38:24;;;;;;;10.47;3.80;;;13.50;99.90;;;;;;5077606;28;20507;-76
2022/10/02 05:40:59;;;;;;;12.57;4.13;;;13.40;99.90;;;;;;5082962;28;20613;-72
2022/10/02 05:43:34;;;;;;;16.77;3.60;;;13.40;99.90;;;;;;5090044;28;20213;-74
2022/10/02 05:46:13;;;;;;;13.33;3.80;;;13.50;99.90;;;;;;5084149;28;20213;-71
2022/10/02 05:48:50;;;;;;;14.70;4.30;;;13.50;99.90;;;;;;5079372;28;20183;-74
2022/10/02 05:51:38;;;;;;;10.27;3.20;;;13.50;99.90;;;;;;5078777;28;20178;-74
2022/10/02 05:54:38;;;;;;;13.67;3.93;;;13.50;99.90;;;;;;5077671;28;20652;-75
2022/10/02 05:57:51;;;;;;;9.90;3.63;;;13.40;99.90;;;;;;5084597;28;20182;-74
2022/10/02 06:00:56;;;;;;;16.43;4.90;;;13.30;99.90;;;;;;5056663;28;20217;-75
2022/10/02 06:03:35;;;;;;;14.67;4.23;;;13.30;99.90;;;;;;5081943;28;20189;-72
2022/10/02 06:06:05;;;;;;;11.03;3.17;;;13.20;99.90;;;;;;5086229;28;20315;-78
2022/10/02 06:08:41;;;;;;;15.40;5.20;;;13.00;99.90;;;;;;5077798;28;20185;-74
2022/10/02 06:11:15;;;;;;;9.73;2.97;;;12.80;99.90;;;;;;5076853;28;20213;-78
2022/10/02 06:13:55;;;;;;;9.47;4.67;;;12.60;99.90;;;;;;5077760;28;20305;-77
2022/10/02 06:16:30;;;;;;;10.67;3.97;;;12.70;99.90;;;;;;5088209;28;20226;-70
2022/10/02 06:19:03;;;;;;;11.53;4.00;;;12.50;99.90;;;;;;5082485;28;20177;-76
2022/10/02 06:21:42;;;;;;;9.10;3.97;;;12.10;99.90;;;;;;5082110;28;20254;-74
2022/10/02 06:24:19;;;;;;;17.27;4.13;;;12.00;99.90;;;;;;5077223;28;20239;-71
2022/10/02 06:27:02;;;;;;;8.73;3.53;;;11.30;99.90;;;;;;5083562;28;20221;-73
2022/10/02 06:29:34;;;;;;;13.77;3.80;;;13.10;99.90;;;;;;5076539;28;20183;-74
2022/10/02 06:32:23;;;;;;;9.83;4.33;;;13.40;99.90;;;;;;5082930;28;20190;-71
2022/10/02 06:34:49;;;;;;;13.80;4.30;;;13.40;99.90;;;;;;5080422;28;20197;-72
2022/10/02 06:37:18;;;;;;;6.43;3.10;;;13.40;99.90;;;;;;5077670;28;20241;-77
2022/10/02 06:40:08;;;;;;;11.17;4.10;;;13.30;99.90;;;;;;5078295;28;20481;-76
2022/10/02 06:42:46;;;;;;;9.90;4.23;;;13.30;99.90;;;;;;5083012;28;20178;-74
2022/10/02 06:45:22;;;;;;;6.87;3.17;;;13.20;99.90;;;;;;5076847;28;20218;-73
2022/10/02 06:48:04;;;;;;;7.90;3.47;;;13.20;99.90;;;;;;5081801;28;20191;-71
2022/10/02 06:50:43;;;;;;;12.10;3.63;;;13.20;99.90;;;;;;5085198;28;20201;-73
2022/10/02 06:53:27;;;;;;;15.73;4.63;;;13.20;99.90;;;;;;5082225;28;20189;-74
2022/10/02 06:56:30;;;;;;;11.10;4.37;;;13.20;99.90;;;;;;5089560;28;20193;-74
2022/10/02 06:59:19;;;;;;;22.30;5.23;;;13.30;99.90;;;;;;5091347;28;20466;-71
2022/10/02 07:02:16;;;;;;;16.37;5.27;;;13.30;99.90;;;;;;5089274;28;20187;-71
2022/10/02 07:04:47;;;;;;;13.90;4.57;;;13.30;99.90;;;;;;5053277;28;20245;-72
2022/10/02 07:07:31;;;;;;;9.13;4.73;;;13.40;99.90;;;;;;5090416;28;20528;-72
2022/10/02 07:10:06;;;;;;;14.53;4.23;;;13.40;99.90;;;;;;5089308;28;20240;-80
2022/10/02 07:12:57;;;;;;;12.43;5.10;;;13.30;99.90;;;;;;5091667;28;20202;-77
2022/10/02 07:15:24;;;;;;;9.60;4.50;;;13.30;99.90;;;;;;5089876;28;20206;-77
2022/10/02 07:18:18;;;;;;;11.33;4.30;;;13.20;99.90;;;;;;5092642;28;20210;-72
2022/10/02 07:21:30;;;;;;;10.03;4.40;;;13.10;99.90;;;;;;5090369;28;20264;-77
2022/10/02 07:24:21;;;;;;;14.83;5.20;;;13.30;99.90;;;;;;5080069;28;20205;-76
2022/10/02 07:27:19;;;;;;;11.93;5.17;;;13.30;99.90;;;;;;5089922;28;20284;-73
2022/10/02 07:29:58;;;;;;;7.63;3.97;;;13.20;99.90;;;;;;5090256;28;20179;-70
2022/10/02 07:32:35;;;;;;;10.73;5.03;;;13.30;99.90;;;;;;5090322;28;20189;-72
2022/10/02 07:35:04;;;;;;;16.53;5.50;;;13.30;99.90;;;;;;5088914;28;20540;-71
2022/10/02 07:38:04;;;;;;;16.70;4.00;;;13.30;99.90;;;;;;5088593;28;20226;-74
2022/10/02 07:40:35;;;;;;;11.07;4.40;;;13.20;99.90;;;;;;5088077;28;20616;-71
2022/10/02 07:43:38;;;;;;;6.40;2.63;;;13.30;99.90;;;;;;5085327;28;20188;-76
2022/10/02 07:46:15;;;;;;;11.30;4.33;;;13.30;99.90;;;;;;5087997;28;20206;-78
2022/10/02 07:49:11;;;;;;;11.43;4.23;;;13.20;99.90;;;;;;5089739;28;20181;-81
2022/10/02 07:52:18;;;;;;;11.50;3.70;;;13.30;99.90;;;;;;5077959;28;20552;-82
2022/10/02 07:54:50;;;;;;;4.37;2.93;;;13.40;99.90;;;;;;5089691;28;20193;-71
2022/10/02 07:57:25;;;;;;;10.50;4.07;;;13.40;99.90;;;;;;5081341;28;20501;-69
2022/10/02 08:00:02;;;;;;;14.13;3.93;;;13.40;99.90;;;;;;5075305;28;20283;-75
2022/10/02 08:02:46;;;;;;;8.30;3.17;;;13.40;99.90;;;;;;5088247;28;20443;-70
2022/10/02 08:05:22;;;;;;;7.10;3.23;;;13.40;99.90;;;;;;5075435;28;20198;-74
2022/10/02 08:07:54;;;;;;;17.33;3.83;;;13.40;99.90;;;;;;5075497;28;20190;-73
2022/10/02 08:10:24;;;;;;;8.27;3.30;;;13.40;99.90;;;;;;5085036;28;20570;-69
2022/10/02 08:13:02;;;;;;;8.73;2.93;;;13.50;99.90;;;;;;5080840;28;20269;-71
2022/10/02 08:15:33;;;;;;;3.87;2.70;;;13.60;99.90;;;;;;5082411;28;20254;-69
2022/10/02 08:18:16;;;;;;;6.83;2.97;;;13.50;99.90;;;;;;5082411;28;20183;-70
2022/10/02 08:20:45;;;;;;;11.73;4.30;;;13.50;99.90;;;;;;5083123;28;20183;-69
2022/10/02 08:23:30;;;;;;;9.47;4.53;;;13.40;99.90;;;;;;5083303;28;20235;-73
2022/10/02 08:26:14;;;;;;;5.73;3.83;;;13.50;99.90;;;;;;5075365;28;20215;-71
2022/10/02 08:28:48;;;;;;;10.07;4.20;;;13.60;99.90;;;;;;5082258;28;20222;-72
2022/10/02 08:31:14;;;;;;;7.80;4.80;;;13.60;99.90;;;;;;5075259;28;20206;-73
2022/10/02 08:33:41;;;;;;;10.10;4.07;;;13.70;99.90;;;;;;5075198;28;20550;-70
2022/10/02 08:36:36;;;;;;;8.70;3.47;;;13.70;99.90;;;;;;5078259;28;20210;-74
2022/10/02 08:39:27;;;;;;;5.63;3.17;;;13.60;99.90;;;;;;5065969;28;20274;-72
2022/10/02 08:42:20;;;;;;;7.60;2.90;;;13.50;99.90;;;;;;5074550;28;20194;-71
2022/10/02 08:45:01;;;;;;;6.43;2.77;;;13.50;99.90;;;;;;5082048;28;20183;-71
2022/10/02 08:47:46;;;;;;;9.63;3.53;;;13.50;99.90;;;;;;5088452;28;20265;-69
2022/10/02 08:50:36;;;;;;;5.77;3.13;;;13.50;99.90;;;;;;5088906;28;20175;-75
2022/10/02 08:53:44;;;;;;;7.23;3.93;;;13.50;99.90;;;;;;5088520;28;20247;-70
2022/10/02 08:56:42;;;;;;;6.77;3.47;;;13.50;99.90;;;;;;5067832;28;20196;-68
2022/10/02 08:59:25;;;;;;;5.50;3.50;;;13.50;99.90;;;;;;5086362;28;20187;-78
2022/10/02 09:02:10;;;;;;;5.73;3.13;;;13.50;99.90;;;;;;5084512;28;20198;-77
2022/10/02 09:04:48;;;;;;;5.33;3.63;;;13.60;99.90;;;;;;5087878;28;20194;-72
2022/10/02 09:07:52;;;;;;;6.53;3.83;;;13.50;99.90;;;;;;5089404;28;20265;-70
2022/10/02 09:10:30;;;;;;;8.70;3.33;;;13.50;99.90;;;;;;5084366;28;20284;-70
2022/10/02 09:13:34;;;;;;;5.47;4.23;;;13.40;99.90;;;;;;5087658;28;20233;-72
2022/10/02 09:16:10;;;;;;;8.30;4.27;;;13.50;99.90;;;;;;5030536;28;20615;-71
2022/10/02 09:19:01;;;;;;;9.33;4.47;;;13.50;99.90;;;;;;5078513;28;20218;-71
2022/10/02 09:21:59;;;;;;;7.27;4.43;;;13.60;99.90;;;;;;5085456;28;20190;-72
2022/10/02 09:24:54;;;;;;;5.93;5.33;;;13.60;99.90;;;;;;5088220;28;20633;-72
2022/10/02 09:27:48;;;;;;;7.83;4.43;;;13.70;99.90;;;;;;5088793;28;20193;-72
2022/10/02 09:30:34;;;;;;;8.03;4.97;;;13.80;99.90;;;;;;5086803;28;20190;-73
2022/10/02 09:33:30;;;;;;;11.00;5.87;;;13.70;99.90;;;;;;5087601;28;20612;-73
2022/10/02 09:36:30;;;;;;;7.27;4.90;;;13.70;99.90;;;;;;5076224;28;20184;-73
2022/10/02 09:39:34;;;;;;;14.93;6.17;;;13.70;99.90;;;;;;5077442;28;20598;-70
2022/10/02 09:42:34;;;;;;;7.47;4.97;;;13.70;99.90;;;;;;5077670;28;20183;-73
2022/10/02 09:45:35;;;;;;;7.50;5.23;;;13.60;99.90;;;;;;5073783;28;20203;-75
2022/10/02 09:48:39;;;;;;;7.77;5.27;;;13.60;99.90;;;;;;5074586;28;20183;-76
2022/10/02 09:51:38;;;;;;;6.97;5.43;;;13.60;99.90;;;;;;5073878;28;20172;-76
2022/10/02 09:54:20;;;;;;;5.93;5.43;;;13.60;99.90;;;;;;5078441;28;20175;-71
2022/10/02 09:57:01;;;;;;;7.10;4.90;;;13.50;99.90;;;;;;5085465;28;20262;-72
2022/10/02 09:59:46;;;;;;;8.20;5.57;;;13.50;99.90;;;;;;5087501;28;20190;-69
2022/10/02 10:02:42;;;;;;;11.40;6.43;;;13.40;99.90;;;;;;5075444;28;20230;-73
2022/10/02 10:05:38;;;;;;;8.37;5.40;;;13.40;99.90;;;;;;5077861;28;20201;-71
2022/10/02 10:08:29;;;;;;;5.87;5.37;;;13.40;99.90;;;;;;5079680;28;20172;-73
2022/10/02 10:10:55;;;;;;;8.77;6.43;;;13.40;99.90;;;;;;5072479;28;20187;-71
2022/10/02 10:13:40;;;;;;;6.93;5.43;;;13.40;99.90;;;;;;5082536;28;20211;-71
2022/10/02 10:16:29;;;;;;;6.23;5.43;;;13.60;99.90;;;;;;5082522;28;20182;-68
2022/10/02 10:19:25;;;;;;;6.23;5.10;;;13.60;99.90;;;;;;5082241;28;20187;-71
2022/10/02 10:22:06;;;;;;;7.70;5.73;;;13.50;99.90;;;;;;5076787;28;20274;-72
2022/10/02 10:25:16;;;;;;;6.60;5.87;;;13.50;99.90;;;;;;5077490;28;20178;-69
2022/10/02 10:28:06;;;;;;;5.13;4.40;;;13.50;99.90;;;;;;5040350;28;20279;-72
2022/10/02 10:30:52;;;;;;;7.33;5.67;;;13.30;99.90;;;;;;5081591;28;20303;-71
2022/10/02 10:33:28;;;;;;;4.50;4.10;;;13.50;99.90;;;;;;5080027;28;20213;-71
2022/10/02 10:39:33;;;;;;;5.53;4.20;;;13.30;99.90;;;;;;5077182;28;20510;-75
2022/10/02 10:42:16;;;;;;;4.77;4.33;;;13.30;99.90;;;;;;5079584;28;20265;-73
2022/10/02 10:44:58;;;;;;;5.13;4.00;;;13.30;99.90;;;;;;5083055;28;20224;-71
2022/10/02 10:47:51;;;;;;;7.87;4.07;;;13.30;99.90;;;;;;5092229;28;20175;-75
2022/10/02 10:50:37;;;;;;;5.27;2.90;;;13.30;99.90;;;;;;5086821;28;20241;-73
2022/10/02 10:53:38;;;;;;;4.57;3.37;;;13.30;99.90;;;;;;5081303;28;20179;-73
2022/10/02 10:56:48;;;;;;;6.70;4.07;;;13.20;99.90;;;;;;5062499;28;20277;-74
2022/10/02 10:59:32;;;;;;;8.70;3.50;;;13.00;99.90;;;;;;5073072;28;20198;-70
2022/10/02 11:02:21;;;;;;;6.93;3.80;;;12.90;99.90;;;;;;5080503;28;20561;-69
2022/10/02 11:05:06;;;;;;;6.57;3.00;;;13.10;99.90;;;;;;5071350;28;20602;-73
2022/10/02 11:07:40;;;;;;;5.40;3.60;;;13.30;99.90;;;;;;5084123;28;20190;-76
2022/10/02 11:10:21;;;;;;;5.43;3.17;;;13.40;99.90;;;;;;5078175;28;20179;-79
2022/10/02 11:13:02;;;;;;;6.20;4.00;;;13.40;99.90;;;;;;5079789;28;20179;-72
2022/10/02 11:15:46;;;;;;;8.57;3.67;;;13.40;99.90;;;;;;5076944;28;20242;-77
2022/10/02 11:18:33;;;;;;;6.63;4.23;;;13.40;99.90;;;;;;5075722;28;20190;-74
2022/10/02 11:21:14;;;;;;;8.40;3.43;;;13.30;99.90;;;;;;5075259;28;20217;-73
2022/10/02 11:24:13;;;;;;;7.13;3.33;;;-13.70;99.90;;;;;;5076604;28;20266;-72
2022/10/02 11:26:58;;;;;;;6.67;2.97;;;-15.30;99.90;;;;;;5078451;28;20211;-72
2022/10/02 11:29:36;;;;;;;8.23;4.53;;;-12.70;99.90;;;;;;5084172;28;20278;-69
2022/10/02 11:32:30;;;;;;;8.90;3.90;;;-15.00;99.90;;;;;;5083180;28;20183;-71
2022/10/02 11:35:05;;;;;;;4.83;3.73;;;-14.00;99.90;;;;;;5085357;28;20178;-75
2022/10/02 11:38:22;;;;;;;5.20;3.80;;;-13.50;99.90;;;;;;5076784;28;20175;-72
2022/10/02 11:41:07;;;;;;;8.23;3.07;;;-16.80;99.90;;;;;;5072179;28;20249;-72
2022/10/02 11:43:58;;;;;;;4.63;3.37;;;-14.00;99.90;;;;;;5081858;28;20293;-79
2022/10/02 11:46:47;;;;;;;5.47;3.37;;;14.60;99.90;;;;;;5079035;28;20217;-77
2022/10/02 11:49:44;;;;;;;3.90;2.90;;;14.60;99.90;;;;;;5078990;28;20185;-71
2022/10/02 11:52:29;;;;;;;3.83;3.53;;;14.60;99.90;;;;;;5080421;28;20579;-69
2022/10/02 11:55:14;;;;;;;6.20;3.90;;;14.60;99.90;;;;;;5080784;28;20190;-69
2022/10/02 11:57:59;;;;;;;5.27;3.10;;;14.60;99.90;;;;;;5081962;28;20177;-72
2022/10/02 12:01:04;;;;;;;5.93;3.30;;;14.60;99.90;;;;;;5084113;28;20178;-70
2022/10/02 12:04:02;;;;;;;5.23;4.10;;;14.40;99.90;;;;;;5084225;28;20204;-72
2022/10/02 12:06:46;;;;;;;6.07;3.80;;;14.40;99.90;;;;;;5089708;28;20194;-74
2022/10/02 12:09:37;;;;;;;20.47;4.17;;;14.50;99.90;;;;;;5088780;28;20185;-73
2022/10/02 12:12:34;;;;;;;4.53;2.90;;;14.60;99.90;;;;;;5089193;28;20182;-79
2022/10/02 12:15:22;;;;;;;4.20;3.90;;;14.60;99.90;;;;;;5088380;28;20194;-75
2022/10/02 12:17:54;;;;;;;4.67;3.33;;;14.70;99.90;;;;;;5089569;28;20487;-76
2022/10/02 12:27:01;;;;;;;4.13;3.73;;;15.00;99.90;;;;;;5087317;28;20583;-71
2022/10/02 12:29:51;;;;;;;4.73;3.40;;;14.90;99.90;;;;;;5089009;28;20174;-78
2022/10/02 12:32:26;;;;;;;3.93;3.63;;;14.90;99.90;;;;;;5089969;28;20182;-72
2022/10/02 12:35:16;;;;;;;6.77;3.77;;;15.10;99.90;;;;;;5088393;28;20170;-75
2022/10/02 12:38:00;;;;;;;4.73;3.80;;;14.90;99.90;;;;;;5087826;28;20183;-69
2022/10/02 12:40:44;;;;;;;7.27;3.97;;;15.00;99.90;;;;;;5091067;28;20240;-70
2022/10/02 12:43:38;;;;;;;7.50;3.67;;;14.90;99.90;;;;;;5089485;28;20178;-77
2022/10/02 12:46:22;;;;;;;8.60;4.63;;;15.00;99.90;;;;;;5086849;28;20327;-76
2022/10/02 12:48:56;;;;;;;6.97;3.83;;;15.10;99.90;;;;;;5089115;28;20504;-73
2022/10/02 12:52:04;;;;;;;6.83;4.30;;;15.00;99.90;;;;;;5088199;28;20171;-72
2022/10/02 12:54:42;;;;;;;9.80;5.73;;;15.00;99.90;;;;;;5065613;28;20616;-73
2022/10/02 12:57:54;;;;;;;5.70;4.50;;;15.00;99.90;;;;;;5088739;28;20177;-77
2022/10/02 13:00:25;;;;;;;10.63;4.63;;;14.90;99.90;;;;;;5088544;28;20194;-74
2022/10/02 13:03:13;;;;;;;4.93;4.47;;;14.90;99.90;;;;;;5087401;28;20191;-73
2022/10/02 13:05:52;;;;;;;5.93;4.97;;;14.90;99.90;;;;;;5087105;28;20221;-74
2022/10/02 13:08:41;;;;;;;10.70;5.67;;;14.90;99.90;;;;;;5086514;28;20175;-76
2022/10/02 13:11:29;;;;;;;10.83;4.77;;;14.90;99.90;;;;;;5088673;28;20206;-71
2022/10/02 13:14:14;;;;;;;8.70;6.43;;;15.00;99.90;;;;;;5086960;28;20209;-69
2022/10/02 13:17:04;;;;;;;5.73;5.13;;;15.10;99.90;;;;;;5086059;28;20182;-76
2022/10/02 13:19:42;;;;;;;7.70;6.10;;;15.00;99.90;;;;;;5088565;28;20193;-74
2022/10/02 13:22:35;;;;;;;6.20;5.20;;;15.10;99.90;;;;;;5089239;28;20193;-70
2022/10/02 13:25:01;;;;;;;6.40;5.60;;;15.10;99.90;;;;;;5089016;28;20371;-70
2022/10/02 13:27:54;;;;;;;7.03;5.63;;;15.00;99.90;;;;;;5086254;28;20257;-69
2022/10/02 13:30:24;;;;;;;7.17;6.00;;;14.90;99.90;;;;;;5086174;28;20175;-69
2022/10/02 13:33:07;;;;;;;9.97;5.30;;;14.90;99.90;;;;;;5085815;28;20175;-68
2022/10/02 13:35:55;;;;;;;6.23;4.40;;;14.70;99.90;;;;;;5087985;28;20735;-68
2022/10/02 13:38:42;;;;;;;9.20;4.30;;;14.70;99.90;;;;;;5088785;28;20179;-67
2022/10/02 13:41:26;;;;;;;7.43;5.10;;;14.80;99.90;;;;;;5086039;28;20180;-68
2022/10/02 13:44:17;;;;;;;6.13;4.70;;;14.80;99.90;;;;;;5087823;28;20497;-70
2022/10/02 13:47:04;;;;;;;12.20;4.67;;;14.90;99.90;;;;;;5089093;28;20281;-73
2022/10/02 13:49:54;;;;;;;5.23;4.73;;;14.80;99.90;;;;;;5086689;28;20270;-68
2022/10/02 13:52:32;;;;;;;6.37;4.77;;;14.70;99.90;;;;;;5089717;28;20236;-69
2022/10/02 13:55:28;;;;;;;5.57;4.70;;;14.80;99.90;;;;;;5091368;28;20189;-71
2022/10/02 13:58:21;;;;;;;5.33;4.40;;;14.80;99.90;;;;;;5089287;28;20182;-74
2022/10/02 14:01:00;;;;;;;7.63;4.37;;;15.00;99.90;;;;;;5091133;28;20194;-74
2022/10/02 14:03:54;;;;;;;8.07;5.07;;;14.90;99.90;;;;;;5089155;28;20780;-73
2022/10/02 14:06:54;;;;;;;7.13;5.20;;;15.10;99.90;;;;;;5092535;28;20202;-71
2022/10/02 14:09:35;;;;;;;8.70;5.00;;;15.20;99.90;;;;;;5092402;28;20515;-70
2022/10/02 14:12:48;;;;;;;4.97;4.17;;;15.30;99.90;;;;;;5089134;28;20258;-73